Time;durP1;ratioP1;P1;durP2;ratioP2;P2;SDS_P1;SDS_P2;PMS_P1;PMS_P2;Temp;Humidity;BMP_temperature;BMP_pressure;BME280_temperature;BME280_humidity;BME280_pressure;Samples;Min_cycle;Max_cycle;Signal;HPM_P1;HPM_P2
2024/01/07 00:00:20;;;;;;;;;;;;;;;0.60;67.44;101331.44;4212604;28;20011;-70
2024/01/07 00:02:22;;;;;;;;;;;;;;;0.59;67.45;101344.81;4212617;28;20039;-70
2024/01/07 00:04:24;;;;;;;;;;;;;;;0.61;68.06;101340.25;4213314;28;20030;-70
2024/01/07 00:06:26;;;;;;;;;;;;;;;0.60;67.74;101339.41;4211662;28;19987;-69
2024/01/07 00:08:27;;;;;;;;;;;;;;;0.60;68.12;101338.56;4213692;28;20062;-71
2024/01/07 00:10:33;;;;;;;;;;;;;;;0.60;67.51;101344.72;4211030;28;20019;-70
2024/01/07 00:12:35;;;;;;;;;;;;;;;0.59;67.07;101350.16;4212794;28;19928;-70
2024/01/07 00:14:37;;;;;;;;;;;;;;;0.57;67.48;101344.06;4212343;28;20031;-70
2024/01/07 00:16:40;;;;;;;;;;;;;;;0.57;67.37;101342.25;4213178;28;20023;-70
2024/01/07 00:18:42;;;;;;;;;;;;;;;0.56;67.50;101353.00;4212639;28;20039;-70
2024/01/07 00:20:44;;;;;;;;;;;;;;;0.54;67.56;101347.78;4210481;28;20034;-70
2024/01/07 00:22:46;;;;;;;;;;;;;;;0.54;67.73;101359.25;4213146;28;20038;-70
2024/01/07 00:24:48;;;;;;;;;;;;;;;0.56;68.14;101355.66;4212301;28;20015;-70
2024/01/07 00:26:52;;;;;;;;;;;;;;;0.54;68.29;101356.59;4213082;28;20024;-70
2024/01/07 00:28:59;;;;;;;;;;;;;;;0.54;67.95;101363.72;4211569;28;19924;-70
2024/01/07 00:31:01;;;;;;;;;;;;;;;0.54;67.74;101364.56;4213384;28;20016;-70
2024/01/07 00:33:03;;;;;;;;;;;;;;;0.55;68.14;101357.47;4213026;28;19967;-70
2024/01/07 00:35:09;;;;;;;;;;;;;;;0.53;68.06;101357.56;4212075;28;20658;-70
2024/01/07 00:37:10;;;;;;;;;;;;;;;0.56;68.68;101360.97;4203699;28;19963;-70
2024/01/07 00:39:12;;;;;;;;;;;;;;;0.55;68.00;101370.75;4212992;28;19970;-70
2024/01/07 00:41:17;;;;;;;;;;;;;;;0.54;67.78;101369.03;4210586;28;20019;-69
2024/01/07 00:43:22;;;;;;;;;;;;;;;0.53;67.44;101375.28;4212302;28;20015;-71
2024/01/07 00:45:24;;;;;;;;;;;;;;;0.51;67.40;101372.72;4212614;28;20023;-70
2024/01/07 00:47:26;;;;;;;;;;;;;;;0.54;68.08;101385.00;4212490;28;20026;-70
2024/01/07 00:49:30;;;;;;;;;;;;;;;0.56;67.97;101384.91;4209574;28;20030;-70
2024/01/07 00:51:32;;;;;;;;;;;;;;;0.54;67.81;101387.66;4210963;28;20011;-69
2024/01/07 00:53:35;;;;;;;;;;;;;;;0.56;67.77;101387.56;4220192;28;20385;-70
2024/01/07 00:55:39;;;;;;;;;;;;;;;0.53;67.55;101392.13;4212239;28;20019;-70
2024/01/07 00:57:41;;;;;;;;;;;;;;;0.53;67.79;101394.78;4203636;28;20038;-70
2024/01/07 00:59:44;;;;;;;;;;;;;;;0.52;67.51;101401.03;4211930;28;20019;-70
2024/01/07 01:01:46;;;;;;;;;;;;;;;0.52;67.73;101401.03;4211575;28;20027;-70
2024/01/07 01:03:47;;;;;;;;;;;;;;;0.51;67.95;101396.66;4212000;28;20366;-70
2024/01/07 01:05:49;;;;;;;;;;;;;;;0.52;67.79;101403.69;4211869;28;19946;-70
2024/01/07 01:07:51;;;;;;;;;;;;;;;0.50;67.59;101407.38;4202158;28;20002;-70
2024/01/07 01:09:53;;;;;;;;;;;;;;;0.48;66.93;101404.81;4212832;28;20019;-70
2024/01/07 01:11:55;;;;;;;;;;;;;;;0.47;66.74;101400.47;4219147;28;20931;-70
2024/01/07 01:13:56;;;;;;;;;;;;;;;0.47;66.38;101416.41;4219560;28;20401;-70
2024/01/07 01:16:00;;;;;;;;;;;;;;;0.45;66.49;101420.97;4211859;28;20023;-70
2024/01/07 01:18:02;;;;;;;;;;;;;;;0.46;66.92;101424.50;4220273;27;20434;-70
2024/01/07 01:20:04;;;;;;;;;;;;;;;0.44;66.60;101423.72;4210044;28;20411;-70
2024/01/07 01:22:06;;;;;;;;;;;;;;;0.44;66.94;101426.38;4202448;28;20034;-70
2024/01/07 01:24:07;;;;;;;;;;;;;;;0.43;66.68;101425.53;4218998;28;20399;-70
2024/01/07 01:26:09;;;;;;;;;;;;;;;0.42;66.22;101433.59;4211710;28;20469;-70
2024/01/07 01:28:11;;;;;;;;;;;;;;;0.40;66.34;101433.69;4211505;28;20349;-70
2024/01/07 01:30:13;;;;;;;;;;;;;;;0.39;66.17;101437.28;4210850;28;20453;-70
2024/01/07 01:32:17;;;;;;;;;;;;;;;0.39;66.14;101434.63;4210851;28;20346;-71
2024/01/07 01:34:19;;;;;;;;;;;;;;;0.35;65.97;101441.09;4210916;28;20651;-71
2024/01/07 01:36:21;;;;;;;;;;;;;;;0.35;65.62;101443.75;4212066;28;20018;-71
2024/01/07 01:38:23;;;;;;;;;;;;;;;0.34;65.55;101440.22;4185737;28;19933;-71
2024/01/07 01:40:25;;;;;;;;;;;;;;;0.35;65.81;101447.25;4209859;28;20052;-71
2024/01/07 01:42:27;;;;;;;;;;;;;;;0.34;65.63;101456.16;4206682;28;20019;-71
2024/01/07 01:44:31;;;;;;;;;;;;;;;0.34;65.58;101450.84;4210049;28;20484;-70
2024/01/07 01:46:33;;;;;;;;;;;;;;;0.34;65.34;101442.03;4208533;28;20014;-71
2024/01/07 01:48:36;;;;;;;;;;;;;;;0.32;64.54;101454.56;4211369;28;20024;-70
2024/01/07 01:50:38;;;;;;;;;;;;;;;0.31;64.47;101459.03;4210925;28;20011;-70
2024/01/07 01:52:42;;;;;;;;;;;;;;;0.29;64.67;101452.94;4219066;28;20377;-71
2024/01/07 01:54:44;;;;;;;;;;;;;;;0.28;64.28;101453.03;4217990;28;20404;-70
2024/01/07 01:56:46;;;;;;;;;;;;;;;0.26;63.86;101454.94;4210840;28;20027;-70
2024/01/07 01:58:48;;;;;;;;;;;;;;;0.25;64.22;101456.75;4210449;28;20484;-70
2024/01/07 02:00:50;;;;;;;;;;;;;;;0.23;63.83;101465.75;4201987;28;19966;-70
2024/01/07 02:02:52;;;;;;;;;;;;;;;0.22;64.31;101467.56;4210439;28;20029;-70
2024/01/07 02:04:56;;;;;;;;;;;;;;;0.23;64.32;101476.38;4210990;28;20110;-70
2024/01/07 02:06:58;;;;;;;;;;;;;;;0.22;64.56;101470.22;4209909;28;20026;-70
2024/01/07 02:09:00;;;;;;;;;;;;;;;0.21;64.25;101471.16;4211537;28;20018;-70
2024/01/07 02:11:14;;;;;;;;;;;;;;;0.20;64.54;101472.09;4210326;28;20478;-70
2024/01/07 02:13:16;;;;;;;;;;;;;;;0.18;64.02;101471.34;4211469;28;20576;-70
2024/01/07 02:15:18;;;;;;;;;;;;;;;0.18;64.17;101468.66;4210433;28;19924;-70
2024/01/07 02:17:20;;;;;;;;;;;;;;;0.16;64.23;101465.25;4209656;28;20054;-70
2024/01/07 02:19:22;;;;;;;;;;;;;;;0.17;64.32;101477.56;4210998;28;20020;-70
2024/01/07 02:21:26;;;;;;;;;;;;;;;0.17;64.72;101472.25;4211534;28;20031;-71
2024/01/07 02:23:27;;;;;;;;;;;;;;;0.16;64.58;101475.88;4202445;28;20462;-70
2024/01/07 02:25:35;;;;;;;;;;;;;;;0.16;64.78;101474.06;4211615;28;20015;-70
2024/01/07 02:27:37;;;;;;;;;;;;;;;0.15;64.05;101476.81;4210353;28;20027;-71
2024/01/07 02:29:39;;;;;;;;;;;;;;;0.15;63.92;101474.16;4210850;28;20019;-70
2024/01/07 02:31:41;;;;;;;;;;;;;;;0.12;63.40;101477.00;4210766;28;20015;-70
2024/01/07 02:33:43;;;;;;;;;;;;;;;0.11;63.78;101475.28;4210875;28;20446;-70
2024/01/07 02:35:44;;;;;;;;;;;;;;;0.09;63.56;101477.19;4211832;28;19982;-70
2024/01/07 02:37:46;;;;;;;;;;;;;;;0.09;63.74;101479.84;4209833;28;19928;-70
2024/01/07 02:39:48;;;;;;;;;;;;;;;0.07;63.27;101489.72;4208962;28;19970;-70
2024/01/07 02:41:51;;;;;;;;;;;;;;;0.07;63.46;101498.53;4206758;28;20035;-70
2024/01/07 02:43:53;;;;;;;;;;;;;;;0.06;63.55;101486.19;4210468;28;20015;-70
2024/01/07 02:45:55;;;;;;;;;;;;;;;0.05;63.62;101495.13;4209407;28;20453;-70
2024/01/07 02:47:57;;;;;;;;;;;;;;;0.04;63.27;101497.88;4208971;28;20015;-70
2024/01/07 02:49:59;;;;;;;;;;;;;;;0.02;63.13;101505.03;4184818;28;19963;-70
2024/01/07 02:52:01;;;;;;;;;;;;;;;0.00;63.41;101491.88;4210356;28;20057;-70
2024/01/07 02:54:03;;;;;;;;;;;;;;;-0.01;63.33;101495.47;4210747;28;20022;-70
2024/01/07 02:56:08;;;;;;;;;;;;;;;-0.03;63.26;101500.88;4210594;28;19928;-70
2024/01/07 02:58:11;;;;;;;;;;;;;;;-0.02;63.70;101507.03;4210601;28;20011;-70
2024/01/07 03:00:13;;;;;;;;;;;;;;;-0.04;63.51;101517.75;4209918;28;20011;-70
2024/01/07 03:02:15;;;;;;;;;;;;;;;-0.07;63.05;101517.91;4210768;28;20042;-70
2024/01/07 03:04:17;;;;;;;;;;;;;;;-0.08;63.05;101516.22;4211060;28;20018;-70
2024/01/07 03:06:19;;;;;;;;;;;;;;;-0.09;62.73;101513.66;4211365;28;20007;-71
2024/01/07 03:08:20;;;;;;;;;;;;;;;-0.11;63.09;101502.25;4211874;28;20019;-70
2024/01/07 03:10:22;;;;;;;;;;;;;;;-0.12;62.93;101512.03;4210366;28;20007;-71
2024/01/07 03:12:24;;;;;;;;;;;;;;;-0.14;62.83;101505.97;4208980;28;20043;-71
2024/01/07 03:14:27;;;;;;;;;;;;;;;-0.13;63.21;101514.78;4210652;28;20022;-70
2024/01/07 03:16:28;;;;;;;;;;;;;;;-0.16;63.18;101510.47;4210775;28;19924;-71
2024/01/07 03:18:30;;;;;;;;;;;;;;;-0.16;63.25;101517.59;4211407;28;19958;-71
2024/01/07 03:20:32;;;;;;;;;;;;;;;-0.21;62.66;101521.38;4210080;28;20464;-70
2024/01/07 03:22:34;;;;;;;;;;;;;;;-0.20;63.29;101524.91;4210021;28;20011;-70
2024/01/07 03:24:36;;;;;;;;;;;;;;;-0.21;63.31;101523.19;4218078;28;20027;-70
2024/01/07 03:26:37;;;;;;;;;;;;;;;-0.25;62.89;101519.84;4211245;28;20082;-71
2024/01/07 03:28:39;;;;;;;;;;;;;;;-0.27;62.82;101526.19;4210504;28;19936;-70
2024/01/07 03:30:42;;;;;;;;;;;;;;;-0.28;63.01;101524.47;4209729;28;20006;-70
2024/01/07 03:32:44;;;;;;;;;;;;;;;-0.29;63.04;101533.38;4210523;28;20019;-70
2024/01/07 03:34:48;;;;;;;;;;;;;;;-0.30;63.16;101526.34;4210601;28;20031;-70
2024/01/07 03:36:50;;;;;;;;;;;;;;;-0.31;63.15;101520.19;4210140;28;19924;-70
2024/01/07 03:38:52;;;;;;;;;;;;;;;-0.31;63.55;101529.94;4211081;28;20019;-70
2024/01/07 03:40:54;;;;;;;;;;;;;;;-0.29;63.72;101531.59;4217028;28;20082;-70
2024/01/07 03:42:56;;;;;;;;;;;;;;;-0.30;63.82;101536.97;4209333;28;20027;-71
2024/01/07 03:44:58;;;;;;;;;;;;;;;-0.33;63.14;101539.81;4209306;28;20011;-70
2024/01/07 03:47:01;;;;;;;;;;;;;;;-0.38;63.11;101543.59;4210209;28;20031;-70
2024/01/07 03:49:03;;;;;;;;;;;;;;;-0.39;62.85;101531.25;4208903;28;20059;-71
2024/01/07 03:51:05;;;;;;;;;;;;;;;-0.39;63.30;101544.53;4210640;28;20019;-69
2024/01/07 03:53:07;;;;;;;;;;;;;;;-0.39;63.62;101549.00;4208142;28;20027;-70
2024/01/07 03:55:09;;;;;;;;;;;;;;;-0.43;63.07;101558.91;4210817;28;20429;-70
2024/01/07 03:57:11;;;;;;;;;;;;;;;-0.45;62.77;101557.28;4211322;28;19924;-70
2024/01/07 03:59:13;;;;;;;;;;;;;;;-0.49;62.67;101567.19;4212393;28;20051;-70
2024/01/07 04:01:17;;;;;;;;;;;;;;;-0.50;62.88;101568.16;4212911;28;20015;-70
2024/01/07 04:03:20;;;;;;;;;;;;;;;-0.55;62.77;101575.50;4213018;28;20055;-69
2024/01/07 04:05:22;;;;;;;;;;;;;;;-0.57;62.88;101575.59;4213658;28;20018;-71
2024/01/07 04:07:24;;;;;;;;;;;;;;;-0.56;63.18;101576.47;4212873;28;20027;-70
2024/01/07 04:09:25;;;;;;;;;;;;;;;-0.57;63.29;101578.22;4212742;28;20015;-70
2024/01/07 04:11:27;;;;;;;;;;;;;;;-0.60;62.81;101580.22;4213042;28;20294;-69
2024/01/07 04:13:29;;;;;;;;;;;;;;;-0.60;62.93;101593.47;4212885;28;20004;-70
2024/01/07 04:15:31;;;;;;;;;;;;;;;-0.62;62.64;101596.22;4213177;28;20015;-70
2024/01/07 04:17:33;;;;;;;;;;;;;;;-0.62;62.74;101605.97;4212590;28;19932;-70
2024/01/07 04:19:37;;;;;;;;;;;;;;;-0.66;62.74;101586.72;4213445;28;20011;-70
2024/01/07 04:21:39;;;;;;;;;;;;;;;-0.67;62.69;101603.56;4213805;28;20023;-69
2024/01/07 04:23:40;;;;;;;;;;;;;;;-0.67;63.35;101590.31;4212580;28;20015;-70
2024/01/07 04:25:44;;;;;;;;;;;;;;;-0.68;63.19;101601.00;4213465;28;19924;-69
2024/01/07 04:27:46;;;;;;;;;;;;;;;-0.68;63.05;101603.66;4213684;28;20022;-70
2024/01/07 04:29:48;;;;;;;;;;;;;;;-0.69;62.99;101605.47;4212465;28;20064;-69
2024/01/07 04:31:50;;;;;;;;;;;;;;;-0.66;63.33;101615.91;4212935;28;20370;-70
2024/01/07 04:33:51;;;;;;;;;;;;;;;-0.68;62.71;101623.06;4213888;28;19963;-70
2024/01/07 04:35:57;;;;;;;;;;;;;;;-0.70;62.57;101619.66;4213484;28;19928;-69
2024/01/07 04:37:59;;;;;;;;;;;;;;;-0.72;62.81;101610.94;4212310;28;20454;-71
2024/01/07 04:40:02;;;;;;;;;;;;;;;-0.71;62.81;101609.13;4212286;28;20030;-70
2024/01/07 04:42:04;;;;;;;;;;;;;;;-0.72;62.69;101616.25;4212735;28;20020;-70
2024/01/07 04:44:06;;;;;;;;;;;;;;;-0.73;62.67;101612.72;4212873;28;19989;-70
2024/01/07 04:46:10;;;;;;;;;;;;;;;-0.76;62.35;101625.28;4211983;28;20346;-69
2024/01/07 04:48:12;;;;;;;;;;;;;;;-0.75;62.92;101630.50;4211998;28;20043;-69
2024/01/07 04:50:15;;;;;;;;;;;;;;;-0.77;62.48;101627.09;4213019;28;20011;-70
2024/01/07 04:52:18;;;;;;;;;;;;;;;-0.84;61.71;101619.53;4211661;28;20376;-70
2024/01/07 04:54:20;;;;;;;;;;;;;;;-0.84;62.03;101620.38;4212180;28;20364;-70
2024/01/07 04:56:22;;;;;;;;;;;;;;;-0.84;62.16;101616.88;4212746;28;20007;-69
2024/01/07 04:58:24;;;;;;;;;;;;;;;-0.82;62.57;101625.63;4212367;28;19924;-70
2024/01/07 05:00:26;;;;;;;;;;;;;;;-0.83;62.68;101622.13;4211936;28;20373;-70
2024/01/07 05:02:28;;;;;;;;;;;;;;;-0.84;62.63;101623.03;4211535;28;20560;-70
2024/01/07 05:04:30;;;;;;;;;;;;;;;-0.87;62.08;101631.16;4212480;28;20372;-70
2024/01/07 05:06:32;;;;;;;;;;;;;;;-0.87;62.30;101625.00;4213135;28;20035;-70
2024/01/07 05:08:35;;;;;;;;;;;;;;;-0.88;62.48;101629.44;4212033;28;20362;-69
2024/01/07 05:10:37;;;;;;;;;;;;;;;-0.92;62.24;101626.09;4211508;28;20458;-70
2024/01/07 05:12:39;;;;;;;;;;;;;;;-0.93;62.11;101631.47;4211022;28;20010;-70
2024/01/07 05:14:42;;;;;;;;;;;;;;;-0.93;62.43;101634.13;4202818;28;20451;-69
2024/01/07 05:16:44;;;;;;;;;;;;;;;-0.92;62.88;101639.34;4219708;28;20366;-70
2024/01/07 05:18:48;;;;;;;;;;;;;;;-0.89;63.33;101646.31;4211827;28;20645;-70
2024/01/07 05:20:50;;;;;;;;;;;;;;;-0.90;62.95;101641.94;4211392;28;20023;-70
2024/01/07 05:22:51;;;;;;;;;;;;;;;-0.93;62.60;101640.28;4211588;28;20011;-70
2024/01/07 05:24:54;;;;;;;;;;;;;;;-0.94;62.67;101643.03;4209046;28;20015;-70
2024/01/07 05:26:56;;;;;;;;;;;;;;;-0.96;62.72;101650.22;4212007;28;20015;-69
2024/01/07 05:28:58;;;;;;;;;;;;;;;-0.98;62.58;101650.28;4211776;28;20059;-69
2024/01/07 05:31:01;;;;;;;;;;;;;;;-0.99;62.64;101653.03;4211673;28;20011;-69
2024/01/07 05:33:03;;;;;;;;;;;;;;;-0.99;62.83;101656.56;4211166;28;20019;-70
2024/01/07 05:35:05;;;;;;;;;;;;;;;-1.00;62.55;101661.94;4212624;28;20027;-70
2024/01/07 05:37:07;;;;;;;;;;;;;;;-1.01;62.64;101658.41;4212194;28;20115;-70
2024/01/07 05:39:08;;;;;;;;;;;;;;;-1.00;62.95;101662.78;4211855;28;20489;-70
2024/01/07 05:41:12;;;;;;;;;;;;;;;-1.01;63.17;101671.66;4208925;28;19936;-70
2024/01/07 05:43:14;;;;;;;;;;;;;;;-1.03;63.21;101668.25;4209962;28;20019;-70
2024/01/07 05:45:16;;;;;;;;;;;;;;;-1.03;63.05;101672.69;4211579;28;20054;-69
2024/01/07 05:47:18;;;;;;;;;;;;;;;-1.03;63.31;101673.53;4211406;28;20046;-70
2024/01/07 05:49:20;;;;;;;;;;;;;;;-1.05;63.07;101677.19;4210647;28;20035;-70
2024/01/07 05:51:22;;;;;;;;;;;;;;;-1.08;63.29;101675.59;4211523;28;20018;-70
2024/01/07 05:53:23;;;;;;;;;;;;;;;-1.07;63.21;101682.59;4209825;28;20082;-70
2024/01/07 05:55:25;;;;;;;;;;;;;;;-1.09;63.43;101680.00;4210898;28;20015;-70
2024/01/07 05:57:29;;;;;;;;;;;;;;;-1.11;63.34;101686.34;4211010;28;20066;-70
2024/01/07 05:59:30;;;;;;;;;;;;;;;-1.14;63.08;101684.69;4210489;28;20332;-69
2024/01/07 06:01:32;;;;;;;;;;;;;;;-1.15;63.29;101680.31;4210825;28;19967;-70
2024/01/07 06:03:34;;;;;;;;;;;;;;;-1.17;63.07;101690.16;4211354;28;20377;-70
2024/01/07 06:05:36;;;;;;;;;;;;;;;-1.17;63.48;101691.94;4210710;28;20454;-70
2024/01/07 06:07:38;;;;;;;;;;;;;;;-1.18;63.51;101698.19;4212026;28;20580;-70
2024/01/07 06:09:39;;;;;;;;;;;;;;;-1.22;63.12;101697.50;4211348;28;20010;-70
2024/01/07 06:11:41;;;;;;;;;;;;;;;-1.24;63.55;101688.72;4209081;28;20051;-70
2024/01/07 06:13:43;;;;;;;;;;;;;;;-1.21;63.66;101695.69;4210430;28;20027;-69
2024/01/07 06:15:46;;;;;;;;;;;;;;;-1.21;63.95;101704.47;4210802;28;20011;-69
2024/01/07 06:17:48;;;;;;;;;;;;;;;-1.21;64.05;101707.13;4211504;28;20022;-70
2024/01/07 06:19:50;;;;;;;;;;;;;;;-1.19;63.96;101715.00;4210435;28;19958;-70
2024/01/07 06:21:52;;;;;;;;;;;;;;;-1.19;63.99;101715.00;4201890;28;20007;-71
2024/01/07 06:23:54;;;;;;;;;;;;;;;-1.18;64.45;101714.94;4212151;28;20015;-70
2024/01/07 06:25:56;;;;;;;;;;;;;;;-1.15;64.60;101713.94;4211521;28;20456;-70
2024/01/07 06:27:58;;;;;;;;;;;;;;;-1.17;64.11;101726.41;4210959;28;20520;-70
2024/01/07 06:30:02;;;;;;;;;;;;;;;-1.18;64.07;101716.75;4210973;28;20376;-69
2024/01/07 06:32:04;;;;;;;;;;;;;;;-1.19;64.12;101723.84;4210737;28;20007;-70
2024/01/07 06:34:07;;;;;;;;;;;;;;;-1.16;64.36;101726.34;4209595;28;20026;-70
2024/01/07 06:36:09;;;;;;;;;;;;;;;-1.15;64.58;101727.19;4210778;28;20006;-69
2024/01/07 06:38:11;;;;;;;;;;;;;;;-1.14;64.83;101735.06;4211027;28;20019;-70
2024/01/07 06:40:13;;;;;;;;;;;;;;;-1.13;64.98;101727.97;4207802;28;20022;-69
2024/01/07 06:42:15;;;;;;;;;;;;;;;-1.12;64.87;101735.00;4209736;28;20011;-69
2024/01/07 06:44:17;;;;;;;;;;;;;;;-1.14;64.92;101732.41;4210390;28;20026;-69
2024/01/07 06:46:19;;;;;;;;;;;;;;;-1.13;64.80;101730.63;4210489;28;20011;-69
2024/01/07 06:48:21;;;;;;;;;;;;;;;-1.12;64.80;101729.69;4211640;28;19971;-70
2024/01/07 06:50:23;;;;;;;;;;;;;;;-1.11;64.68;101734.06;4210864;28;20004;-69
2024/01/07 06:52:25;;;;;;;;;;;;;;;-1.10;64.70;101734.00;4210503;28;20018;-69
2024/01/07 06:54:27;;;;;;;;;;;;;;;-1.10;64.81;101739.28;4211277;28;20054;-69
2024/01/07 06:56:29;;;;;;;;;;;;;;;-1.10;64.61;101744.59;4210493;28;20473;-69
2024/01/07 06:58:32;;;;;;;;;;;;;;;-1.13;64.33;101747.41;4210573;28;20024;-71
2024/01/07 07:00:34;;;;;;;;;;;;;;;-1.15;64.20;101741.28;4209875;28;20416;-70
2024/01/07 07:02:37;;;;;;;;;;;;;;;-1.16;64.13;101734.28;4211009;28;20018;-70
2024/01/07 07:04:39;;;;;;;;;;;;;;;-1.14;64.56;101744.81;4211035;28;20031;-70
2024/01/07 07:06:42;;;;;;;;;;;;;;;-1.16;64.29;101744.91;4210671;28;20031;-70
2024/01/07 07:08:44;;;;;;;;;;;;;;;-1.16;64.06;101750.19;4210157;28;20011;-70
2024/01/07 07:10:46;;;;;;;;;;;;;;;-1.14;64.38;101742.19;4209549;28;20019;-69
2024/01/07 07:12:47;;;;;;;;;;;;;;;-1.17;64.02;101745.81;4209206;28;20044;-69
2024/01/07 07:14:49;;;;;;;;;;;;;;;-1.15;64.32;101743.94;4211074;28;19932;-70
2024/01/07 07:16:51;;;;;;;;;;;;;;;-1.14;64.23;101748.31;4211231;28;20501;-69
2024/01/07 07:18:54;;;;;;;;;;;;;;;-1.12;64.50;101751.75;4211006;28;20019;-69
2024/01/07 07:20:56;;;;;;;;;;;;;;;-1.14;64.06;101753.63;4209823;28;20449;-69
2024/01/07 07:22:57;;;;;;;;;;;;;;;-1.17;63.87;101756.44;4210679;28;20019;-70
2024/01/07 07:24:59;;;;;;;;;;;;;;;-1.15;64.12;101761.66;4210175;28;19931;-69
2024/01/07 07:27:01;;;;;;;;;;;;;;;-1.15;64.22;101761.66;4210183;28;20023;-69
2024/01/07 07:29:03;;;;;;;;;;;;;;;-1.13;64.39;101763.31;4210842;28;20011;-69
2024/01/07 07:31:05;;;;;;;;;;;;;;;-1.14;64.26;101763.38;4211448;28;20023;-70
2024/01/07 07:33:07;;;;;;;;;;;;;;;-1.13;64.48;101768.59;4213209;28;20362;-70
2024/01/07 07:35:10;;;;;;;;;;;;;;;-1.11;64.74;101776.50;4214100;28;20438;-69
2024/01/07 07:37:13;;;;;;;;;;;;;;;-1.07;65.41;101782.50;4204903;28;20757;-69
2024/01/07 07:39:15;;;;;;;;;;;;;;;-1.05;65.35;101783.25;4213879;28;19996;-71
2024/01/07 07:41:16;;;;;;;;;;;;;;;-1.07;64.79;101785.13;4202806;28;19943;-70
2024/01/07 07:43:18;;;;;;;;;;;;;;;-1.09;64.23;101786.06;4212803;28;19924;-69
2024/01/07 07:45:20;;;;;;;;;;;;;;;-1.07;64.42;101782.50;4213037;28;20015;-70
2024/01/07 07:47:22;;;;;;;;;;;;;;;-1.05;64.62;101786.78;4214572;28;20018;-70
2024/01/07 07:49:24;;;;;;;;;;;;;;;-1.02;64.75;101791.94;4213396;28;20031;-70
2024/01/07 07:51:26;;;;;;;;;;;;;;;-1.04;64.42;101788.50;4213414;28;20014;-70
2024/01/07 07:53:28;;;;;;;;;;;;;;;-1.04;64.50;101792.94;4213652;28;20014;-69
2024/01/07 07:55:30;;;;;;;;;;;;;;;-1.02;64.34;101794.59;4213733;28;20006;-69
2024/01/07 07:57:32;;;;;;;;;;;;;;;-1.01;64.26;101798.09;4213533;28;20349;-70
2024/01/07 07:59:33;;;;;;;;;;;;;;;-0.99;64.39;101804.16;4213646;28;20027;-69
2024/01/07 08:01:35;;;;;;;;;;;;;;;-1.01;64.55;101798.94;4212032;28;19970;-72
2024/01/07 08:03:37;;;;;;;;;;;;;;;-0.98;64.30;101806.75;4211095;28;20027;-70
2024/01/07 08:05:41;;;;;;;;;;;;;;;-0.99;63.64;101809.47;4213135;28;20372;-69
2024/01/07 08:07:45;;;;;;;;;;;;;;;-0.97;64.19;101808.47;4211177;28;20039;-69
2024/01/07 08:09:47;;;;;;;;;;;;;;;-0.96;64.02;101810.16;4213476;28;20043;-69
2024/01/07 08:11:49;;;;;;;;;;;;;;;-0.94;63.91;101810.97;4210621;28;20010;-69
2024/01/07 08:13:50;;;;;;;;;;;;;;;-0.94;64.11;101816.28;4212268;28;20086;-69
2024/01/07 08:15:52;;;;;;;;;;;;;;;-0.93;64.00;101811.81;4212752;28;19939;-70
2024/01/07 08:17:54;;;;;;;;;;;;;;;-0.92;63.94;101816.22;4213030;28;20011;-69
2024/01/07 08:19:56;;;;;;;;;;;;;;;-0.91;63.91;101820.56;4211875;28;20011;-69
2024/01/07 08:21:58;;;;;;;;;;;;;;;-0.90;64.43;101819.63;4212793;28;19967;-69
2024/01/07 08:24:03;;;;;;;;;;;;;;;-0.89;64.38;101826.66;4212611;28;20474;-71
2024/01/07 08:26:05;;;;;;;;;;;;;;;-0.88;64.34;101822.22;4210074;28;20394;-70
2024/01/07 08:28:07;;;;;;;;;;;;;;;-0.85;64.66;101827.34;4211978;28;20031;-69
2024/01/07 08:30:12;;;;;;;;;;;;;;;-0.85;64.19;101830.00;4212509;28;20043;-69
2024/01/07 08:32:14;;;;;;;;;;;;;;;-0.84;64.66;101824.63;4212812;28;20362;-69
2024/01/07 08:34:16;;;;;;;;;;;;;;;-0.83;64.70;101826.34;4211571;28;20018;-69
2024/01/07 08:36:18;;;;;;;;;;;;;;;-0.81;64.84;101837.75;4211987;28;20007;-69
2024/01/07 08:38:20;;;;;;;;;;;;;;;-0.79;65.00;101838.50;4212300;28;20018;-69
2024/01/07 08:40:24;;;;;;;;;;;;;;;-0.76;64.74;101832.22;4211827;28;20580;-68
2024/01/07 08:42:27;;;;;;;;;;;;;;;-0.76;64.50;101843.66;4211404;28;19935;-69
2024/01/07 08:44:29;;;;;;;;;;;;;;;-0.75;64.40;101842.75;4210756;28;20039;-70
2024/01/07 08:46:31;;;;;;;;;;;;;;;-0.75;64.46;101847.19;4209693;28;19948;-70
2024/01/07 08:48:33;;;;;;;;;;;;;;;-0.74;64.66;101844.47;4186510;28;20019;-69
2024/01/07 08:50:35;;;;;;;;;;;;;;;-0.73;64.63;101832.06;4210483;28;20046;-69
2024/01/07 08:52:37;;;;;;;;;;;;;;;-0.74;64.20;101828.56;4218951;28;20031;-69
2024/01/07 08:54:39;;;;;;;;;;;;;;;-0.74;64.58;101825.03;4210931;28;20031;-67
2024/01/07 08:56:43;;;;;;;;;;;;;;;-0.73;64.39;101822.28;4210543;28;20019;-70
2024/01/07 08:58:45;;;;;;;;;;;;;;;-0.71;64.53;101816.91;4210861;28;20059;-70
2024/01/07 09:00:47;;;;;;;;;;;;;;;-0.71;64.21;101824.03;4209932;28;20014;-69
2024/01/07 09:02:49;;;;;;;;;;;;;;;-0.70;64.60;101825.75;4211034;28;20027;-69
2024/01/07 09:04:52;;;;;;;;;;;;;;;-0.67;65.18;101831.75;4208840;28;20011;-69
2024/01/07 09:06:52;;;;;;;;;;;;;;;-0.64;64.86;101836.91;4208940;28;20374;-69
2024/01/07 09:08:54;;;;;;;;;;;;;;;-0.66;64.44;101832.59;4210972;28;19973;-69
2024/01/07 09:10:56;;;;;;;;;;;;;;;-0.63;64.57;101825.34;4208192;28;20408;-69
2024/01/07 09:13:00;;;;;;;;;;;;;;;-0.61;64.78;101827.91;4210754;28;20461;-69
2024/01/07 09:15:02;;;;;;;;;;;;;;;-0.60;64.55;101833.13;4210195;28;20027;-70
2024/01/07 09:17:04;;;;;;;;;;;;;;;-0.61;64.33;101835.88;4207878;28;19970;-69
2024/01/07 09:19:06;;;;;;;;;;;;;;;-0.60;64.31;101840.25;4209943;28;20027;-69
2024/01/07 09:21:07;;;;;;;;;;;;;;;-0.60;64.58;101845.56;4209934;28;20026;-69
2024/01/07 09:23:09;;;;;;;;;;;;;;;-0.59;64.52;101847.28;4210130;28;19924;-69
2024/01/07 09:25:11;;;;;;;;;;;;;;;-0.59;64.51;101852.59;4209735;28;20019;-69
2024/01/07 09:27:14;;;;;;;;;;;;;;;-0.58;64.62;101846.31;4209213;28;20458;-69
2024/01/07 09:29:18;;;;;;;;;;;;;;;-0.56;65.08;101834.72;4208271;28;20038;-70
2024/01/07 09:31:20;;;;;;;;;;;;;;;-0.55;64.91;101843.53;4209867;28;20019;-69
2024/01/07 09:33:23;;;;;;;;;;;;;;;-0.52;65.00;101847.81;4209533;28;20022;-69
2024/01/07 09:35:25;;;;;;;;;;;;;;;-0.51;65.46;101845.09;4207639;28;20030;-69
2024/01/07 09:37:27;;;;;;;;;;;;;;;-0.49;65.29;101842.38;4207987;28;20010;-70
2024/01/07 09:39:29;;;;;;;;;;;;;;;-0.47;65.50;101843.13;4207509;28;20035;-69
2024/01/07 09:41:31;;;;;;;;;;;;;;;-0.46;65.76;101843.06;4208732;28;20023;-68
2024/01/07 09:43:33;;;;;;;;;;;;;;;-0.45;65.63;101841.28;4207485;28;19928;-69
2024/01/07 09:45:37;;;;;;;;;;;;;;;-0.45;65.57;101842.13;4207802;28;20133;-69
2024/01/07 09:47:40;;;;;;;;;;;;;;;-0.43;65.68;101837.59;4207149;28;20032;-69
2024/01/07 09:49:42;;;;;;;;;;;;;;;-0.42;65.32;101830.50;4208745;28;20011;-68
2024/01/07 09:51:45;;;;;;;;;;;;;;;-0.42;65.26;101836.66;4209591;28;20029;-68
2024/01/07 09:53:47;;;;;;;;;;;;;;;-0.41;65.35;101846.34;4209544;28;20101;-70
2024/01/07 09:55:52;;;;;;;;;;;;;;;-0.42;65.39;101836.66;4210008;28;20022;-68
2024/01/07 09:57:54;;;;;;;;;;;;;;;-0.39;65.62;101835.66;4208908;28;20014;-69
2024/01/07 09:59:56;;;;;;;;;;;;;;;-0.39;65.60;101833.84;4206790;28;20015;-69
2024/01/07 10:01:59;;;;;;;;;;;;;;;-0.36;65.89;101838.16;4210227;28;20011;-68
2024/01/07 10:04:01;;;;;;;;;;;;;;;-0.33;65.96;101839.78;4209657;28;19932;-69
2024/01/07 10:06:02;;;;;;;;;;;;;;;-0.31;66.25;101835.22;4210800;28;20023;-69
2024/01/07 10:08:05;;;;;;;;;;;;;;;-0.32;65.91;101837.03;4208645;28;19928;-68
2024/01/07 10:10:16;;;;;;;;;;;;;;;-0.30;66.21;101848.44;4200875;28;19967;-68
2024/01/07 10:12:18;;;;;;;;;;;;;;;-0.30;65.86;101850.22;4199497;28;20059;-68
2024/01/07 10:14:22;;;;;;;;;;;;;;;-0.29;65.75;101849.31;4209754;28;20022;-69
2024/01/07 10:16:24;;;;;;;;;;;;;;;-0.30;65.70;101852.88;4201369;28;20022;-68
2024/01/07 10:18:30;;;;;;;;;;;;;;;-0.29;65.74;101846.66;4208474;28;20019;-68
2024/01/07 10:20:32;;;;;;;;;;;;;;;-0.27;66.13;101847.41;4210032;28;20491;-69
2024/01/07 10:22:34;;;;;;;;;;;;;;;-0.28;66.30;101838.59;4209939;28;20031;-69
2024/01/07 10:24:37;;;;;;;;;;;;;;;-0.26;66.19;101836.72;4209472;28;19959;-70
2024/01/07 10:26:39;;;;;;;;;;;;;;;-0.26;66.32;101839.38;4208177;28;20043;-69
2024/01/07 10:28:43;;;;;;;;;;;;;;;-0.24;66.68;101844.59;4208961;28;20128;-68
2024/01/07 10:30:48;;;;;;;;;;;;;;;-0.23;66.47;101849.84;4201519;28;20910;-69